TAF and METAR

Decoding for American and Canadian METARs and TAFs is not fully implemented.

Could not understand the following METAR

KEED 192056Z AUTO 01007KT 10SM CLR 29/M10 A2986 RMK AO2 SLP088 T02941100 56027

TAF for Needles Airport

KEED 191739Z 1918/2018 VRB06KT P6SM SKC FM200200 24006KT P6SM SKC FM201200 34010KT P6SM SKC FM201600 01015G24KT P6SM SKC
Report created 19. okt 19:39

between 19. okt 20:00 - 20. okt 20:00

wind 6 knots from various directions
Needles Airport in United States of America at 302m

Latest 5 airports